createdAt,value
2019-06-26T00:00:22.725Z,0.0
2019-06-26T00:10:46.300Z,0.0
2019-06-26T00:21:00.716Z,0.0
2019-06-26T00:31:54.761Z,0.0
2019-06-26T00:42:40.132Z,0.0
2019-06-26T00:53:24.534Z,0.0
2019-06-26T01:03:38.032Z,0.0
2019-06-26T01:13:57.789Z,0.0
2019-06-26T01:24:02.692Z,0.0
2019-06-26T01:34:49.183Z,0.0
2019-06-26T01:45:02.620Z,0.0
2019-06-26T01:55:14.054Z,0.0
2019-06-26T02:05:59.409Z,0.0
2019-06-26T02:16:13.421Z,0.0
2019-06-26T02:26:27.096Z,0.0
2019-06-26T02:37:11.775Z,0.0
2019-06-26T02:47:57.105Z,0.0
2019-06-26T02:58:10.758Z,0.0
2019-06-26T03:08:55.218Z,5.0
2019-06-26T03:19:06.917Z,10.0
2019-06-26T03:29:21.330Z,15.0
2019-06-26T03:39:35.301Z,25.0
2019-06-26T03:49:48.788Z,40.0
2019-06-26T04:00:03.519Z,50.0
2019-06-26T04:10:17.057Z,65.0
2019-06-26T04:20:30.185Z,70.0
2019-06-26T04:46:26.078Z,100.0
2019-06-26T04:56:37.617Z,120.0
2019-06-26T05:06:50.913Z,135.0
2019-06-26T05:17:05.243Z,140.0
2019-06-26T05:27:19.233Z,155.0
2019-06-26T05:37:32.601Z,170.0
2019-06-26T05:47:46.774Z,185.0
2019-06-26T05:58:03.754Z,200.0
2019-06-26T06:08:48.612Z,220.0
2019-06-26T06:19:05.170Z,240.0
2019-06-26T06:29:17.290Z,260.0
2019-06-26T06:40:06.874Z,290.0
2019-06-26T06:50:18.456Z,365.0
2019-06-26T07:01:06.172Z,430.0
2019-06-26T07:11:20.386Z,535.0
2019-06-26T07:21:33.250Z,690.0
2019-06-26T07:31:46.925Z,520.0
2019-06-26T07:42:00.267Z,500.0
2019-06-26T07:52:14.180Z,535.0
2019-06-26T08:02:34.872Z,575.0
2019-06-26T08:12:48.218Z,620.0
2019-06-26T08:23:03.794Z,655.0
2019-06-26T08:33:18.838Z,710.0
2019-06-26T08:43:34.188Z,495.0
2019-06-26T08:54:22.012Z,565.0
2019-06-26T09:04:35.447Z,400.0
2019-06-26T09:14:46.791Z,510.0
2019-06-26T09:25:01.274Z,665.0
2019-06-26T09:35:48.675Z,720.0
2019-06-26T09:46:03.106Z,975.0
2019-06-26T09:56:16.250Z,1085.0
2019-06-26T10:06:30.388Z,735.0
2019-06-26T10:17:16.812Z,1380.0
2019-06-26T10:27:30.304Z,885.0
2019-06-26T10:38:16.930Z,1680.0
2019-06-26T10:48:32.073Z,865.0
2019-06-26T10:58:45.878Z,880.0
2019-06-26T11:08:58.944Z,780.0
2019-06-26T11:19:12.254Z,735.0
2019-06-26T11:29:25.245Z,730.0
2019-06-26T11:39:38.641Z,725.0
2019-06-26T11:49:59.297Z,680.0
2019-06-26T12:00:41.447Z,1335.0
2019-06-26T12:10:50.811Z,1715.0
2019-06-26T12:21:35.748Z,1705.0
2019-06-26T12:31:46.973Z,1645.0
2019-06-26T12:42:00.455Z,1630.0
2019-06-26T12:52:16.824Z,1485.0
2019-06-26T13:02:26.988Z,1385.0
2019-06-26T13:12:45.936Z,1060.0
2019-06-26T13:22:56.208Z,1370.0
2019-06-26T13:33:07.251Z,1140.0
2019-06-26T13:43:54.030Z,965.0
2019-06-26T13:54:45.779Z,790.0
2019-06-26T14:04:59.943Z,750.0
2019-06-26T14:15:13.427Z,1125.0
2019-06-26T14:25:27.620Z,960.0
2019-06-26T14:35:42.041Z,765.0
2019-06-26T14:45:53.260Z,500.0
2019-06-26T14:56:04.324Z,410.0
2019-06-26T15:06:17.905Z,375.0
2019-06-26T15:16:31.872Z,340.0
2019-06-26T15:26:45.437Z,310.0
2019-06-26T15:36:59.776Z,295.0
2019-06-26T15:47:13.700Z,285.0
2019-06-26T15:57:29.341Z,270.0
2019-06-26T16:07:43.085Z,255.0
2019-06-26T16:17:58.291Z,245.0
2019-06-26T16:28:26.218Z,240.0
2019-06-26T16:39:28.651Z,220.0
2019-06-26T16:50:58.310Z,205.0
2019-06-26T17:02:07.008Z,195.0
2019-06-26T17:13:13.848Z,185.0
2019-06-26T17:25:54.201Z,175.0
2019-06-26T17:36:05.882Z,165.0
2019-06-26T17:46:51.584Z,155.0
2019-06-26T18:28:41.221Z,105.0
2019-06-26T18:59:49.735Z,65.0
2019-06-26T19:11:32.118Z,50.0
2019-06-26T19:27:36.733Z,30.0
2019-06-26T19:53:36.007Z,5.0
2019-06-26T20:42:09.706Z,0.0
2019-06-26T20:57:53.921Z,0.0
2019-06-26T21:09:50.782Z,0.0
2019-06-26T22:47:14.234Z,0.0
2019-06-26T23:05:02.272Z,0.0
2019-06-26T23:25:48.672Z,0.0
2019-06-26T23:52:19.124Z,0.0
